createdAt,value
2017-10-06T00:00:33.448Z,11.91
2017-10-06T00:01:33.422Z,12.03
2017-10-06T00:02:33.100Z,12.03
2017-10-06T00:03:33.410Z,11.98
2017-10-06T00:04:32.739Z,11.98
2017-10-06T00:05:33.374Z,12.02
2017-10-06T00:06:33.004Z,12.02
2017-10-06T00:07:32.991Z,12.03
2017-10-06T00:08:33.298Z,12.03
2017-10-06T00:09:32.955Z,12.02
2017-10-06T00:10:33.241Z,11.99
2017-10-06T00:11:33.231Z,12.03
2017-10-06T00:12:32.911Z,12.02
2017-10-06T00:13:32.574Z,12.03
2017-10-06T00:14:33.169Z,11.98
2017-10-06T00:15:33.135Z,11.95
2017-10-06T00:16:33.121Z,11.94
2017-10-06T00:17:33.113Z,12.02
2017-10-06T00:18:32.779Z,12.02
2017-10-06T00:19:33.071Z,12.03
2017-10-06T00:20:33.037Z,12.06
2017-10-06T00:21:33.041Z,12.05
2017-10-06T00:22:32.740Z,11.99
2017-10-06T00:23:32.665Z,11.95
2017-10-06T00:24:32.963Z,12.02
2017-10-06T00:25:32.959Z,12.02
2017-10-06T00:26:32.911Z,11.95
2017-10-06T00:27:32.901Z,11.97
2017-10-06T00:28:32.320Z,11.99
2017-10-06T00:29:32.541Z,12.06
2017-10-06T00:30:32.275Z,12.02
2017-10-06T00:31:32.822Z,12.02
2017-10-06T00:32:32.828Z,11.98
2017-10-06T00:33:32.470Z,12.02
2017-10-06T00:34:32.455Z,11.98
2017-10-06T00:35:32.727Z,11.98
2017-10-06T00:36:32.734Z,11.97
2017-10-06T00:37:32.683Z,11.94
2017-10-06T00:38:32.061Z,11.97
2017-10-06T00:39:32.647Z,11.89
2017-10-06T00:40:32.621Z,11.97
2017-10-06T00:41:32.610Z,11.83
2017-10-06T00:42:32.591Z,11.95
2017-10-06T00:43:32.250Z,11.95
2017-10-06T00:44:32.549Z,12.02
2017-10-06T00:45:32.519Z,11.99
2017-10-06T00:46:32.509Z,11.97
2017-10-06T00:47:31.859Z,11.99
2017-10-06T00:48:32.470Z,12.03
2017-10-06T00:49:32.191Z,11.89
2017-10-06T00:50:32.112Z,11.9
2017-10-06T00:51:32.100Z,11.87
2017-10-06T00:52:32.087Z,11.94
2017-10-06T00:53:31.749Z,11.94
2017-10-06T00:54:32.075Z,11.98
2017-10-06T00:55:32.013Z,11.95
2017-10-06T00:56:31.689Z,11.94
2017-10-06T00:57:32.293Z,11.98
2017-10-06T00:58:31.950Z,12.05
2017-10-06T00:59:32.271Z,12.02
2017-10-06T01:00:32.219Z,12.13
2017-10-06T01:01:31.900Z,12.03
2017-10-06T01:02:31.869Z,12.03
2017-10-06T01:03:31.529Z,12.03
2017-10-06T01:04:31.829Z,12.05
2017-10-06T01:05:32.125Z,12.06
2017-10-06T01:06:32.109Z,12.15
2017-10-06T01:07:32.113Z,12.12
2017-10-06T01:08:31.750Z,12.15
2017-10-06T01:09:31.429Z,12.02
2017-10-06T01:10:32.030Z,12.03
2017-10-06T01:11:31.683Z,12.02
2017-10-06T01:12:31.665Z,12.05
2017-10-06T01:13:31.950Z,12.1
2017-10-06T01:14:31.928Z,12.12
2017-10-06T01:15:31.602Z,12.13
2017-10-06T01:16:31.595Z,12.21
2017-10-06T01:17:31.879Z,12.1
2017-10-06T01:18:31.846Z,12.05
2017-10-06T01:19:31.825Z,12.03
2017-10-06T01:20:31.819Z,12.05
2017-10-06T01:21:31.799Z,11.98
2017-10-06T01:22:31.459Z,12.05
2017-10-06T01:23:31.439Z,12.21
2017-10-06T01:24:31.420Z,12.21
2017-10-06T01:25:31.413Z,12.15
2017-10-06T01:26:31.709Z,12.2
2017-10-06T01:27:31.363Z,12.1
2017-10-06T01:28:31.659Z,12.15
2017-10-06T01:29:31.638Z,12.21
2017-10-06T01:30:31.322Z,12.13
2017-10-06T01:31:31.293Z,12.21
2017-10-06T01:32:31.287Z,12.21
2017-10-06T01:33:31.261Z,12.21
2017-10-06T01:34:31.532Z,12.17
2017-10-06T01:35:31.195Z,12.17
2017-10-06T01:36:31.190Z,12.16
2017-10-06T01:37:31.163Z,12.28
2017-10-06T01:38:31.142Z,12.16
2017-10-06T01:39:31.433Z,12.17
2017-10-06T01:40:31.673Z,12.16
2017-10-06T01:41:31.099Z,12.32
2017-10-06T01:42:31.377Z,12.27
2017-10-06T01:43:31.360Z,12.28
2017-10-06T01:44:31.331Z,12.27
2017-10-06T01:45:31.327Z,12.17
2017-10-06T01:46:31.301Z,12.25
2017-10-06T01:47:31.274Z,12.34
2017-10-06T01:48:31.263Z,12.21
2017-10-06T01:49:31.240Z,12.28
2017-10-06T01:50:31.241Z,12.2
2017-10-06T01:51:31.212Z,12.09
2017-10-06T01:52:31.185Z,12.12
2017-10-06T01:53:31.154Z,12.17
2017-10-06T01:54:31.142Z,12.16
2017-10-06T01:55:31.137Z,12.21
2017-10-06T01:56:31.092Z,12.23
2017-10-06T01:57:30.763Z,12.2
2017-10-06T01:58:31.067Z,12.21
2017-10-06T01:59:31.036Z,12.3
2017-10-06T02:00:30.421Z,12.16
2017-10-06T02:01:30.690Z,12.13
2017-10-06T02:02:30.656Z,12.15
2017-10-06T02:03:30.966Z,12.23
2017-10-06T02:04:30.624Z,12.13
2017-10-06T02:05:30.595Z,12.13
2017-10-06T02:06:30.263Z,12.24
2017-10-06T02:07:30.863Z,12.21
2017-10-06T02:08:30.870Z,12.17
2017-10-06T02:09:30.830Z,12.23
2017-10-06T02:10:30.495Z,12.06
2017-10-06T02:11:30.492Z,12.03
2017-10-06T02:12:30.774Z,12.07
2017-10-06T02:13:30.450Z,12.02
2017-10-06T02:14:30.430Z,11.98
2017-10-06T02:15:30.726Z,12.06
2017-10-06T02:16:30.682Z,12.12
2017-10-06T02:17:30.682Z,12.16
2017-10-06T02:18:30.656Z,12.13
2017-10-06T02:19:30.314Z,12.03
2017-10-06T02:20:30.080Z,11.98
2017-10-06T02:21:29.975Z,12.03
2017-10-06T02:22:30.262Z,12.05
2017-10-06T02:23:30.532Z,12.06
2017-10-06T02:24:30.527Z,12.13
2017-10-06T02:25:30.191Z,12.12
2017-10-06T02:26:30.472Z,12.07
2017-10-06T02:27:30.473Z,12.03
2017-10-06T02:28:30.130Z,12.09
2017-10-06T02:29:30.451Z,12.13
2017-10-06T02:30:30.081Z,12.06
2017-10-06T02:31:30.380Z,11.98
2017-10-06T02:32:30.041Z,11.97
2017-10-06T02:33:30.339Z,11.9
2017-10-06T02:34:30.018Z,11.91
2017-10-06T02:35:30.283Z,11.95
2017-10-06T02:36:30.012Z,11.91
2017-10-06T02:37:30.261Z,12.03
2017-10-06T02:38:30.243Z,12.09
2017-10-06T02:39:30.221Z,12.07
2017-10-06T02:40:30.186Z,12.1
2017-10-06T02:41:29.863Z,12.05
2017-10-06T02:42:30.161Z,12.06
2017-10-06T02:43:29.847Z,12.07
2017-10-06T02:44:30.103Z,12.15
2017-10-06T02:45:30.129Z,12.17
2017-10-06T02:46:30.077Z,12.28
2017-10-06T02:47:29.737Z,12.21
2017-10-06T02:48:30.023Z,12.2
2017-10-06T02:49:29.384Z,12.21
2017-10-06T02:50:29.374Z,12.23
2017-10-06T02:51:29.649Z,12.13
2017-10-06T02:52:29.631Z,12.21
2017-10-06T02:53:29.929Z,12.23
2017-10-06T02:54:29.911Z,12.02
2017-10-06T02:55:29.597Z,12.07
2017-10-06T02:56:29.550Z,12.03
2017-10-06T02:57:29.543Z,12.03
2017-10-06T02:58:29.822Z,12.05
2017-10-06T02:59:29.172Z,12.06
2017-10-06T03:00:29.791Z,12.2
2017-10-06T03:01:29.767Z,12.15
2017-10-06T03:02:29.743Z,12.09
2017-10-06T03:03:29.724Z,12.07
2017-10-06T03:04:29.715Z,11.98
2017-10-06T03:05:29.364Z,12.05
2017-10-06T03:06:29.343Z,11.99
2017-10-06T03:07:29.636Z,12.03
2017-10-06T03:08:29.629Z,12.13
2017-10-06T03:09:29.591Z,12.15
2017-10-06T03:10:29.271Z,12.07
2017-10-06T03:11:29.235Z,11.97
2017-10-06T03:12:29.534Z,11.94
2017-10-06T03:13:29.534Z,11.98
2017-10-06T03:14:29.191Z,12.03
2017-10-06T03:15:28.857Z,12.05
2017-10-06T03:16:29.453Z,11.84
2017-10-06T03:17:29.135Z,11.95
2017-10-06T03:18:29.118Z,11.94
2017-10-06T03:19:29.103Z,11.95
2017-10-06T03:20:28.752Z,11.83
2017-10-06T03:21:28.734Z,11.89
2017-10-06T03:22:29.344Z,11.91
2017-10-06T03:23:29.321Z,11.84
2017-10-06T03:24:29.299Z,11.81
2017-10-06T03:25:29.283Z,11.84
2017-10-06T03:26:29.258Z,11.84
2017-10-06T03:27:29.234Z,11.86
2017-10-06T03:28:28.911Z,11.56
2017-10-06T03:29:28.893Z,11.71
2017-10-06T03:30:28.863Z,11.72
2017-10-06T03:31:28.540Z,11.83
2017-10-06T03:32:29.139Z,11.84
2017-10-06T03:33:28.803Z,11.87
2017-10-06T03:34:29.085Z,11.95
2017-10-06T03:35:29.090Z,11.9
2017-10-06T03:36:29.047Z,11.87
2017-10-06T03:37:28.731Z,11.9
2017-10-06T03:38:29.009Z,11.84
2017-10-06T03:39:28.981Z,11.87
2017-10-06T03:40:28.449Z,11.76
2017-10-06T03:41:28.950Z,11.83
2017-10-06T03:42:28.932Z,11.86
2017-10-06T03:43:28.911Z,11.75
2017-10-06T03:44:28.967Z,11.75
2017-10-06T03:45:28.882Z,11.76
2017-10-06T03:46:28.861Z,11.84
2017-10-06T03:47:28.831Z,11.84
2017-10-06T03:48:28.826Z,11.81
2017-10-06T03:49:28.792Z,11.84
2017-10-06T03:50:28.451Z,11.73
2017-10-06T03:51:28.126Z,11.6
2017-10-06T03:52:28.419Z,11.6
2017-10-06T03:53:28.390Z,11.64
2017-10-06T03:54:28.694Z,11.56
2017-10-06T03:55:28.911Z,11.58
2017-10-06T03:56:28.684Z,11.54
2017-10-06T03:57:28.646Z,11.6
2017-10-06T03:58:28.312Z,11.5
2017-10-06T03:59:28.613Z,11.54
2017-10-06T04:00:28.661Z,11.51
2017-10-06T04:01:28.227Z,11.53
2017-10-06T04:02:28.243Z,11.64
2017-10-06T04:03:27.881Z,11.58
2017-10-06T04:04:27.851Z,11.66
2017-10-06T04:05:28.140Z,11.69
2017-10-06T04:06:28.533Z,11.6
2017-10-06T04:07:28.433Z,11.46
2017-10-06T04:08:28.424Z,11.24
2017-10-06T04:09:27.754Z,11.26
2017-10-06T04:10:28.368Z,11.1
2017-10-06T04:11:28.019Z,11.11
2017-10-06T04:12:28.012Z,11.02
2017-10-06T04:13:28.320Z,11.06
2017-10-06T04:14:28.280Z,11.08
2017-10-06T04:15:28.252Z,11.08
2017-10-06T04:16:27.913Z,11.13
2017-10-06T04:17:28.222Z,11.18
2017-10-06T04:18:28.215Z,11.28
2017-10-06T04:19:27.859Z,11.2
2017-10-06T04:20:27.831Z,11.32
2017-10-06T04:21:27.810Z,11.11
2017-10-06T04:22:27.790Z,11.32
2017-10-06T04:23:27.459Z,11.32
2017-10-06T04:24:27.761Z,11.46
2017-10-06T04:25:27.731Z,11.33
2017-10-06T04:26:28.042Z,11.21
2017-10-06T04:27:28.068Z,11.26
2017-10-06T04:28:27.668Z,11.33
2017-10-06T04:29:27.672Z,11.23
2017-10-06T04:30:27.365Z,11.38
2017-10-06T04:31:27.285Z,11.32
2017-10-06T04:32:27.891Z,11.32
2017-10-06T04:33:27.877Z,11.35
2017-10-06T04:34:27.870Z,11.23
2017-10-06T04:35:27.552Z,11.2
2017-10-06T04:36:27.501Z,11.17
2017-10-06T04:37:27.800Z,11.17
2017-10-06T04:38:27.458Z,11.11
2017-10-06T04:39:27.442Z,11.14
2017-10-06T04:40:27.732Z,11.23
2017-10-06T04:41:27.701Z,11.28
2017-10-06T04:42:27.400Z,11.24
2017-10-06T04:43:27.663Z,11.33
2017-10-06T04:44:27.647Z,11.32
2017-10-06T04:45:27.423Z,11.33
2017-10-06T04:46:27.303Z,11.31
2017-10-06T04:47:27.681Z,11.29
2017-10-06T04:48:27.556Z,11.18
2017-10-06T04:49:27.012Z,11.28
2017-10-06T04:50:27.523Z,11.24
2017-10-06T04:51:27.522Z,11.31
2017-10-06T04:52:27.483Z,11.28
2017-10-06T04:53:27.178Z,11.36
2017-10-06T04:54:27.467Z,11.32
2017-10-06T04:55:27.424Z,11.28
2017-10-06T04:56:27.090Z,11.2
2017-10-06T04:57:27.144Z,11.11
2017-10-06T04:58:27.062Z,11.2
2017-10-06T04:59:27.373Z,11.26
2017-10-06T05:00:26.992Z,11.39
2017-10-06T05:01:27.012Z,11.33
2017-10-06T05:02:27.281Z,11.47
2017-10-06T05:03:27.377Z,11.42
2017-10-06T05:04:26.919Z,11.38
2017-10-06T05:05:27.052Z,11.42
2017-10-06T05:06:27.188Z,11.47
2017-10-06T05:07:26.543Z,11.35
2017-10-06T05:08:26.843Z,11.31
2017-10-06T05:09:27.168Z,11.24
2017-10-06T05:10:26.791Z,11.2
2017-10-06T05:11:27.070Z,11.21
2017-10-06T05:12:26.770Z,11.23
2017-10-06T05:13:26.793Z,11.21
2017-10-06T05:14:26.391Z,11.21
2017-10-06T05:15:26.772Z,11.29
2017-10-06T05:16:26.983Z,11.26
2017-10-06T05:17:26.979Z,11.32
2017-10-06T05:18:26.634Z,11.26
2017-10-06T05:19:26.973Z,11.29
2017-10-06T05:20:26.580Z,11.24
2017-10-06T05:21:26.624Z,11.32
2017-10-06T05:22:26.253Z,11.33
2017-10-06T05:23:26.535Z,11.35
2017-10-06T05:24:26.882Z,11.38
2017-10-06T05:25:26.519Z,11.42
2017-10-06T05:26:26.142Z,11.39
2017-10-06T05:27:26.755Z,11.39
2017-10-06T05:28:26.426Z,11.38
2017-10-06T05:29:26.412Z,11.24
2017-10-06T05:30:26.471Z,11.23
2017-10-06T05:31:26.377Z,11.2
2017-10-06T05:32:26.031Z,11.2
2017-10-06T05:33:26.701Z,11.18
2017-10-06T05:34:26.622Z,11.29
2017-10-06T05:35:26.276Z,11.18
2017-10-06T05:36:26.722Z,11.26
2017-10-06T05:37:26.621Z,11.23
2017-10-06T05:38:26.539Z,11.35
2017-10-06T05:39:26.504Z,11.46
2017-10-06T05:40:26.487Z,11.46
2017-10-06T05:41:26.572Z,11.35
2017-10-06T05:42:26.551Z,11.47
2017-10-06T05:43:26.508Z,11.47
2017-10-06T05:44:26.172Z,11.51
2017-10-06T05:45:26.491Z,11.48
2017-10-06T05:46:26.373Z,11.46
2017-10-06T05:47:26.342Z,11.58
2017-10-06T05:48:26.069Z,11.58
2017-10-06T05:49:26.333Z,11.6
2017-10-06T05:50:26.309Z,11.57
2017-10-06T05:51:26.261Z,11.53
2017-10-06T05:52:26.270Z,11.53
2017-10-06T05:53:26.222Z,11.53
2017-10-06T05:54:25.877Z,11.57
2017-10-06T05:55:26.172Z,11.57
2017-10-06T05:56:25.850Z,11.57
2017-10-06T05:57:25.831Z,11.6
2017-10-06T05:58:26.111Z,11.58
2017-10-06T05:59:25.773Z,11.61
2017-10-06T06:00:25.772Z,11.58
2017-10-06T06:01:25.731Z,11.61
2017-10-06T06:02:25.735Z,11.56
2017-10-06T06:03:25.411Z,11.53
2017-10-06T06:04:25.988Z,11.43
2017-10-06T06:05:25.958Z,11.46
2017-10-06T06:06:25.943Z,11.48
2017-10-06T06:07:25.909Z,11.53
2017-10-06T06:08:25.302Z,11.53
2017-10-06T06:09:25.883Z,11.54
2017-10-06T06:10:25.881Z,11.5
2017-10-06T06:11:25.831Z,11.48
2017-10-06T06:12:25.826Z,11.5
2017-10-06T06:13:25.803Z,11.47
2017-10-06T06:14:25.769Z,11.58
2017-10-06T06:15:25.123Z,11.6
2017-10-06T06:16:25.443Z,11.66
2017-10-06T06:17:25.731Z,11.54
2017-10-06T06:18:25.374Z,11.6
2017-10-06T06:19:25.693Z,11.58
2017-10-06T06:20:25.704Z,11.69
2017-10-06T06:21:25.644Z,11.73
2017-10-06T06:22:25.304Z,11.72
2017-10-06T06:23:25.282Z,11.69
2017-10-06T06:24:25.251Z,11.83
2017-10-06T06:25:25.639Z,11.97
2017-10-06T06:26:25.538Z,12.03
2017-10-06T06:27:25.261Z,12.35
2017-10-06T06:28:25.214Z,12.34
2017-10-06T06:29:25.461Z,12.32
2017-10-06T06:30:25.184Z,12.23
2017-10-06T06:31:25.124Z,12.1
2017-10-06T06:32:25.101Z,11.98
2017-10-06T06:33:25.113Z,12.05
2017-10-06T06:34:25.059Z,12.02
2017-10-06T06:35:25.350Z,11.98
2017-10-06T06:36:25.325Z,11.95
2017-10-06T06:37:25.311Z,11.84
2017-10-06T06:38:24.659Z,11.94
2017-10-06T06:39:24.955Z,12.2
2017-10-06T06:40:25.244Z,12.55
2017-10-06T06:41:25.239Z,12.94
2017-10-06T06:42:25.214Z,13.11
2017-10-06T06:43:25.183Z,13.47
2017-10-06T06:44:24.853Z,13.71
2017-10-06T06:45:24.621Z,13.7
2017-10-06T06:46:24.501Z,13.77
2017-10-06T06:47:25.112Z,13.72
2017-10-06T06:48:25.123Z,13.62
2017-10-06T06:49:25.062Z,13.42
2017-10-06T06:50:24.800Z,13.01
2017-10-06T06:51:25.051Z,12.81
2017-10-06T06:52:25.025Z,12.58
2017-10-06T06:53:24.391Z,12.57
2017-10-06T06:54:24.985Z,12.52
2017-10-06T06:55:24.665Z,12.5
2017-10-06T06:56:24.658Z,12.5
2017-10-06T06:57:24.931Z,12.46
2017-10-06T06:58:24.920Z,12.43
2017-10-06T06:59:24.871Z,12.45
2017-10-06T07:00:24.861Z,12.34
2017-10-06T07:01:24.313Z,12.31
2017-10-06T07:02:24.200Z,12.35
2017-10-06T07:03:24.790Z,12.37
2017-10-06T07:04:24.478Z,12.67
2017-10-06T07:05:24.784Z,12.71
2017-10-06T07:06:24.444Z,12.74
2017-10-06T07:07:24.411Z,12.83
2017-10-06T07:08:24.448Z,12.78
2017-10-06T07:09:24.384Z,12.57
2017-10-06T07:10:24.817Z,12.5
2017-10-06T07:11:24.656Z,12.53
2017-10-06T07:12:24.627Z,12.37
2017-10-06T07:13:24.614Z,12.53
2017-10-06T07:14:24.431Z,12.49
2017-10-06T07:15:24.265Z,12.53
2017-10-06T07:16:24.569Z,12.53
2017-10-06T07:17:24.221Z,12.53
2017-10-06T07:18:24.503Z,12.4
2017-10-06T07:19:24.499Z,12.42
2017-10-06T07:20:24.471Z,12.45
2017-10-06T07:21:24.444Z,12.45
2017-10-06T07:22:24.428Z,12.4
2017-10-06T07:23:24.093Z,12.37
2017-10-06T07:24:24.110Z,12.52
2017-10-06T07:25:24.378Z,12.49
2017-10-06T07:26:23.731Z,12.52
2017-10-06T07:27:24.031Z,12.42
2017-10-06T07:28:24.326Z,12.43
2017-10-06T07:29:24.282Z,12.37
2017-10-06T07:30:24.276Z,12.37
2017-10-06T07:31:24.271Z,12.34
2017-10-06T07:32:23.930Z,12.43
2017-10-06T07:33:23.917Z,12.49
2017-10-06T07:34:24.190Z,12.39
2017-10-06T07:35:24.182Z,12.4
2017-10-06T07:36:24.174Z,12.58
2017-10-06T07:37:23.846Z,12.58
2017-10-06T07:38:23.822Z,12.53
2017-10-06T07:39:24.094Z,12.49
2017-10-06T07:40:24.089Z,12.55
2017-10-06T07:41:24.065Z,12.53
2017-10-06T07:42:24.085Z,12.64
2017-10-06T07:43:24.014Z,12.6
2017-10-06T07:44:23.995Z,12.64
2017-10-06T07:45:23.981Z,12.58
2017-10-06T07:46:23.980Z,12.73
2017-10-06T07:47:23.965Z,12.73
2017-10-06T07:48:23.932Z,12.68
2017-10-06T07:49:23.914Z,12.78
2017-10-06T07:50:23.873Z,12.97
2017-10-06T07:51:23.550Z,13.03
2017-10-06T07:52:23.834Z,13.04
2017-10-06T07:53:23.839Z,13.08
2017-10-06T07:54:23.822Z,13.26
2017-10-06T07:55:23.782Z,13.33
2017-10-06T07:56:23.451Z,13.33
2017-10-06T07:57:23.441Z,13.37
2017-10-06T07:58:23.721Z,13.4
2017-10-06T07:59:23.721Z,13.29
2017-10-06T08:00:23.692Z,13.22
2017-10-06T08:01:23.677Z,13.22
2017-10-06T08:02:23.646Z,13.19
2017-10-06T08:03:23.630Z,13.22
2017-10-06T08:04:23.615Z,13.08
2017-10-06T08:05:23.615Z,12.96
2017-10-06T08:06:23.584Z,13.06
2017-10-06T08:07:23.301Z,13.03
2017-10-06T08:08:23.534Z,13.03
2017-10-06T08:09:23.529Z,12.96
2017-10-06T08:10:23.517Z,12.97
2017-10-06T08:11:23.182Z,13.11
2017-10-06T08:12:23.460Z,13.14
2017-10-06T08:13:23.445Z,12.88
2017-10-06T08:14:22.804Z,12.83
2017-10-06T08:15:23.152Z,12.81
2017-10-06T08:16:23.382Z,12.79
2017-10-06T08:17:23.385Z,12.74
2017-10-06T08:18:23.363Z,12.79
2017-10-06T08:19:23.322Z,12.64
2017-10-06T08:20:22.986Z,12.78
2017-10-06T08:21:23.303Z,12.61
2017-10-06T08:22:23.269Z,12.48
2017-10-06T08:23:23.247Z,12.57
2017-10-06T08:24:22.930Z,12.64
2017-10-06T08:25:23.212Z,12.73
2017-10-06T08:26:23.200Z,12.73
2017-10-06T08:27:23.190Z,12.81
2017-10-06T08:28:22.834Z,12.86
2017-10-06T08:29:23.120Z,12.88
2017-10-06T08:30:22.856Z,12.96
2017-10-06T08:31:22.803Z,13.03
2017-10-06T08:32:23.091Z,13.01
2017-10-06T08:33:23.059Z,13.19
2017-10-06T08:34:22.723Z,13.11
2017-10-06T08:35:23.015Z,12.97
2017-10-06T08:36:22.743Z,13.08
2017-10-06T08:37:22.969Z,13.11
2017-10-06T08:38:22.960Z,13.18
2017-10-06T08:39:22.934Z,13.19
2017-10-06T08:40:22.623Z,13.15
2017-10-06T08:41:22.902Z,13.19
2017-10-06T08:42:22.873Z,13.16
2017-10-06T08:43:22.853Z,13.21
2017-10-06T08:44:22.839Z,13.21
2017-10-06T08:45:22.826Z,13.35
2017-10-06T08:46:22.805Z,13.37
2017-10-06T08:47:22.773Z,13.35
2017-10-06T08:48:22.505Z,13.37
2017-10-06T08:49:22.751Z,13.38
2017-10-06T08:50:22.724Z,13.28
2017-10-06T08:51:22.392Z,13.16
2017-10-06T08:52:22.687Z,13.23
2017-10-06T08:53:22.665Z,13.19
2017-10-06T08:54:22.633Z,13.18
2017-10-06T08:55:22.571Z,13.22
2017-10-06T08:56:22.299Z,13.25
2017-10-06T08:57:21.950Z,13.15
2017-10-06T08:58:22.321Z,13.14
2017-10-06T08:59:22.243Z,13.25
2017-10-06T09:00:22.225Z,13.4
2017-10-06T09:01:22.521Z,13.33
2017-10-06T09:02:22.492Z,13.38
2017-10-06T09:03:22.155Z,13.41
2017-10-06T09:04:22.460Z,13.38
2017-10-06T09:05:22.112Z,13.41
2017-10-06T09:06:22.096Z,13.57
2017-10-06T09:07:22.386Z,13.53
2017-10-06T09:08:22.064Z,13.67
2017-10-06T09:09:22.360Z,13.52
2017-10-06T09:10:22.023Z,13.38
2017-10-06T09:11:22.011Z,13.35
2017-10-06T09:12:22.300Z,13.37
2017-10-06T09:13:21.953Z,13.25
2017-10-06T09:14:21.951Z,13.22
2017-10-06T09:15:22.253Z,13.31
2017-10-06T09:16:22.230Z,13.35
2017-10-06T09:17:21.891Z,13.31
2017-10-06T09:18:22.193Z,13.19
2017-10-06T09:19:22.153Z,13.21
2017-10-06T09:20:21.844Z,13.15
2017-10-06T09:21:22.121Z,13.22
2017-10-06T09:22:22.129Z,13.16
2017-10-06T09:23:21.771Z,13.11
2017-10-06T09:24:22.072Z,13.08
2017-10-06T09:25:22.109Z,13.21
2017-10-06T09:26:21.725Z,13.04
2017-10-06T09:27:21.713Z,13.16
2017-10-06T09:28:21.686Z,13.1
2017-10-06T09:29:21.974Z,13.08
2017-10-06T09:30:21.668Z,13.1
2017-10-06T09:31:21.929Z,12.96
2017-10-06T09:32:21.902Z,13
2017-10-06T09:33:21.585Z,12.98
2017-10-06T09:34:21.873Z,13.01
2017-10-06T09:35:21.860Z,12.94
2017-10-06T09:36:21.528Z,12.98
2017-10-06T09:37:21.811Z,12.9
2017-10-06T09:38:21.493Z,13.01
2017-10-06T09:39:21.794Z,12.97
2017-10-06T09:40:21.771Z,12.97
2017-10-06T09:41:21.743Z,12.79
2017-10-06T09:42:21.711Z,12.85
2017-10-06T09:43:21.394Z,12.83
2017-10-06T09:44:21.688Z,12.79
2017-10-06T09:45:21.504Z,12.83
2017-10-06T09:46:21.648Z,12.97
2017-10-06T09:47:21.629Z,12.88
2017-10-06T09:48:21.622Z,12.83
2017-10-06T09:49:21.597Z,12.82
2017-10-06T09:50:21.586Z,12.83
2017-10-06T09:51:21.550Z,12.94
2017-10-06T09:52:21.213Z,12.83
2017-10-06T09:53:21.525Z,12.88
2017-10-06T09:54:21.507Z,12.94
2017-10-06T09:55:21.470Z,13
2017-10-06T09:56:21.463Z,13.06
2017-10-06T09:57:21.201Z,13.04
2017-10-06T09:58:21.416Z,13.04
2017-10-06T09:59:21.401Z,12.96
2017-10-06T10:00:21.380Z,12.85
2017-10-06T10:01:21.360Z,13.03
2017-10-06T10:02:21.346Z,12.94
2017-10-06T10:03:21.311Z,12.98
2017-10-06T10:04:21.302Z,13.01
2017-10-06T10:05:20.645Z,13.01
2017-10-06T10:06:21.245Z,12.96
2017-10-06T10:07:21.231Z,13
2017-10-06T10:08:21.215Z,13.07
2017-10-06T10:09:21.192Z,13.08
2017-10-06T10:10:21.169Z,13.07
2017-10-06T10:11:21.157Z,12.98
2017-10-06T10:12:21.130Z,13.04
2017-10-06T10:13:21.122Z,13.07
2017-10-06T10:14:21.094Z,12.88
2017-10-06T10:15:21.093Z,13
2017-10-06T10:16:21.059Z,13.1
2017-10-06T10:17:20.402Z,13.04
2017-10-06T10:18:21.024Z,13.08
2017-10-06T10:19:21.002Z,13.03
2017-10-06T10:20:20.671Z,13.19
2017-10-06T10:21:20.973Z,13.16
2017-10-06T10:22:20.970Z,13.1
2017-10-06T10:23:20.611Z,13.14
2017-10-06T10:24:20.904Z,13.21
2017-10-06T10:25:20.873Z,13.1
2017-10-06T10:26:20.882Z,13.16
2017-10-06T10:27:20.861Z,13.15
2017-10-06T10:28:20.826Z,13.18
2017-10-06T10:29:20.828Z,13.26
2017-10-06T10:30:20.487Z,13.33
2017-10-06T10:31:20.453Z,13.45
2017-10-06T10:32:20.735Z,13.45
2017-10-06T10:33:20.723Z,13.55
2017-10-06T10:34:20.754Z,13.74
2017-10-06T10:35:20.944Z,13.82
2017-10-06T10:36:20.673Z,14
2017-10-06T10:37:20.036Z,14.18
2017-10-06T10:38:20.642Z,14.25
2017-10-06T10:39:20.296Z,14.25
2017-10-06T10:40:20.588Z,14.3
2017-10-06T10:41:20.304Z,14.28
2017-10-06T10:42:20.261Z,14.26
2017-10-06T10:43:20.277Z,14.36
2017-10-06T10:44:20.222Z,14.21
2017-10-06T10:45:20.186Z,14.35
2017-10-06T10:46:20.491Z,14.38
2017-10-06T10:47:20.463Z,14.4
2017-10-06T10:48:20.469Z,14.44
2017-10-06T10:49:20.475Z,14.47
2017-10-06T10:50:20.431Z,14.5
2017-10-06T10:51:20.408Z,14.44
2017-10-06T10:52:20.390Z,14.47
2017-10-06T10:53:20.053Z,14.7
2017-10-06T10:54:20.336Z,14.73
2017-10-06T10:55:20.011Z,14.72
2017-10-06T10:56:19.989Z,14.72
2017-10-06T10:57:19.977Z,14.5
2017-10-06T10:58:20.262Z,14.5
2017-10-06T10:59:20.259Z,14.5
2017-10-06T11:00:20.248Z,14.47
2017-10-06T11:01:20.215Z,14.75
2017-10-06T11:02:20.184Z,14.88
2017-10-06T11:03:20.191Z,14.82
2017-10-06T11:04:20.163Z,15.1
2017-10-06T11:05:19.834Z,15.25
2017-10-06T11:06:20.123Z,15.46
2017-10-06T11:07:20.107Z,15.54
2017-10-06T11:08:20.147Z,15.79
2017-10-06T11:09:20.203Z,15.82
2017-10-06T11:10:19.789Z,15.67
2017-10-06T11:11:19.783Z,15.57
2017-10-06T11:12:19.720Z,15.54
2017-10-06T11:13:19.997Z,15.49
2017-10-06T11:14:20.006Z,15.65
2017-10-06T11:15:19.967Z,15.68
2017-10-06T11:16:19.645Z,15.61
2017-10-06T11:17:19.947Z,15.79
2017-10-06T11:18:19.927Z,16.04
2017-10-06T11:19:19.616Z,16.05
2017-10-06T11:20:19.578Z,15.89
2017-10-06T11:21:20.003Z,15.89
2017-10-06T11:22:19.940Z,15.82
2017-10-06T11:23:19.837Z,15.61
2017-10-06T11:24:19.826Z,15.62
2017-10-06T11:25:19.824Z,15.53
2017-10-06T11:26:19.777Z,15.65
2017-10-06T11:27:19.886Z,15.53
2017-10-06T11:28:19.866Z,15.53
2017-10-06T11:29:19.421Z,15.49
2017-10-06T11:30:19.831Z,15.43
2017-10-06T11:31:19.706Z,15.54
2017-10-06T11:32:19.695Z,15.53
2017-10-06T11:33:19.668Z,15.54
2017-10-06T11:34:19.663Z,15.71
2017-10-06T11:35:19.452Z,15.85
2017-10-06T11:36:19.313Z,16.01
2017-10-06T11:37:19.742Z,16.08
2017-10-06T11:38:19.695Z,16.13
2017-10-06T11:39:19.398Z,16.05
2017-10-06T11:40:19.634Z,15.77
2017-10-06T11:41:19.672Z,15.71
2017-10-06T11:42:19.210Z,15.58
2017-10-06T11:43:19.194Z,15.57
2017-10-06T11:44:19.501Z,15.47
2017-10-06T11:45:19.463Z,15.4
2017-10-06T11:46:19.159Z,15.4
2017-10-06T11:47:19.541Z,15.39
2017-10-06T11:48:19.421Z,15.32
2017-10-06T11:49:19.399Z,15.13
2017-10-06T11:50:19.067Z,15.16
2017-10-06T11:51:19.361Z,15.09
2017-10-06T11:52:19.371Z,15.03
2017-10-06T11:53:19.333Z,15.04
2017-10-06T11:54:19.387Z,15
2017-10-06T11:55:19.448Z,14.98
2017-10-06T11:56:19.313Z,15
2017-10-06T11:57:19.369Z,14.84
2017-10-06T11:58:19.291Z,14.85
2017-10-06T11:59:19.226Z,14.88
2017-10-06T12:00:19.216Z,14.82
2017-10-06T12:01:19.301Z,14.89
2017-10-06T12:02:19.174Z,14.79
2017-10-06T12:03:19.153Z,14.94
2017-10-06T12:04:19.217Z,14.94
2017-10-06T12:05:19.198Z,15.12
2017-10-06T12:06:19.102Z,15.03
2017-10-06T12:07:19.155Z,15.13
2017-10-06T12:08:19.073Z,15.2
2017-10-06T12:09:19.106Z,15.37
2017-10-06T12:10:18.718Z,15.42
2017-10-06T12:11:19.025Z,15.4
2017-10-06T12:12:19.005Z,15.34
2017-10-06T12:13:19.037Z,15.37
2017-10-06T12:14:18.644Z,15.46
2017-10-06T12:15:19.041Z,15.47
2017-10-06T12:16:18.923Z,15.43
2017-10-06T12:17:18.974Z,15.43
2017-10-06T12:18:18.897Z,15.54
2017-10-06T12:19:18.561Z,15.6
2017-10-06T12:20:18.547Z,15.82
2017-10-06T12:21:18.547Z,16.05
2017-10-06T12:22:18.514Z,16.46
2017-10-06T12:23:18.520Z,16.68
2017-10-06T12:24:18.780Z,16.71
2017-10-06T12:25:18.446Z,16.94
2017-10-06T12:26:18.437Z,17.05
2017-10-06T12:27:18.731Z,17.01
2017-10-06T12:28:18.729Z,16.9
2017-10-06T12:29:18.710Z,16.82
2017-10-06T12:30:18.673Z,16.76
2017-10-06T12:31:18.676Z,16.72
2017-10-06T12:32:18.640Z,16.69
2017-10-06T12:33:18.640Z,16.57
2017-10-06T12:34:18.614Z,16.42
2017-10-06T12:35:18.594Z,16.46
2017-10-06T12:36:18.586Z,16.38
2017-10-06T12:37:18.624Z,16.35
2017-10-06T12:38:18.234Z,16.32
2017-10-06T12:39:18.545Z,16.1
2017-10-06T12:40:18.194Z,16.01
2017-10-06T12:41:18.523Z,16.07
2017-10-06T12:42:18.180Z,16.07
2017-10-06T12:43:18.458Z,16.1
2017-10-06T12:44:18.141Z,15.94
2017-10-06T12:45:18.153Z,15.9
2017-10-06T12:46:18.422Z,15.82
2017-10-06T12:47:18.113Z,15.71
2017-10-06T12:48:18.071Z,15.68
2017-10-06T12:49:18.106Z,15.58
2017-10-06T12:50:18.025Z,15.82
2017-10-06T12:51:18.007Z,16.07
2017-10-06T12:52:17.996Z,16.43
2017-10-06T12:53:18.308Z,16.61
2017-10-06T12:54:18.301Z,16.81
2017-10-06T12:55:17.621Z,16.98